Time;durP1;ratioP1;P1;durP2;ratioP2;P2;SDS_P1;SDS_P2;PMS_P1;PMS_P2;Temp;Humidity;BMP_temperature;BMP_pressure;BME280_temperature;BME280_humidity;BME280_pressure;Samples;Min_cycle;Max_cycle;Signal;HPM_P1;HPM_P2
2023/09/28 00:03:05;;;;;;;9.85;8.25;;;17.70;99.90;;;;;;5034569;28;20118;-69
2023/09/28 00:05:31;;;;;;;12.52;8.82;;;17.70;99.90;;;;;;5037146;28;20096;-68
2023/09/28 00:07:58;;;;;;;14.95;8.85;;;17.70;99.90;;;;;;5028719;28;20126;-68
2023/09/28 00:10:23;;;;;;;10.13;7.32;;;17.70;99.90;;;;;;5040361;28;20025;-68
2023/09/28 00:12:51;;;;;;;10.40;8.10;;;17.70;99.90;;;;;;5044575;28;21012;-68
2023/09/28 00:15:18;;;;;;;9.95;8.00;;;17.70;99.90;;;;;;5048552;28;20041;-67
2023/09/28 00:17:47;;;;;;;12.52;8.52;;;17.60;99.90;;;;;;5042659;28;20047;-68
2023/09/28 00:20:17;;;;;;;10.77;7.65;;;17.60;99.90;;;;;;5045606;28;20048;-67
2023/09/28 00:22:51;;;;;;;10.35;7.88;;;17.50;99.90;;;;;;5030929;28;20508;-68
2023/09/28 00:25:19;;;;;;;9.55;7.80;;;17.60;99.90;;;;;;5042674;28;20059;-67
2023/09/28 00:27:50;;;;;;;10.77;7.53;;;17.60;99.90;;;;;;5032516;28;20056;-68
2023/09/28 00:30:20;;;;;;;10.27;8.13;;;17.50;99.90;;;;;;5048549;28;20192;-69
2023/09/28 00:32:50;;;;;;;12.15;7.90;;;17.60;99.90;;;;;;5047213;28;20326;-68
2023/09/28 00:35:16;;;;;;;10.45;7.95;;;17.50;99.90;;;;;;5033898;28;20068;-68
2023/09/28 00:37:42;;;;;;;11.70;8.07;;;17.60;99.90;;;;;;5030356;28;20124;-68
2023/09/28 00:40:19;;;;;;;10.68;7.50;;;17.60;99.90;;;;;;5040847;28;20074;-68
2023/09/28 00:42:51;;;;;;;11.48;8.10;;;17.60;99.90;;;;;;5049413;28;20056;-69
2023/09/28 00:45:27;;;;;;;10.68;7.47;;;17.60;99.90;;;;;;5037944;28;20044;-69
2023/09/28 00:48:04;;;;;;;11.05;7.70;;;17.60;99.90;;;;;;5040399;28;20093;-68
2023/09/28 00:50:33;;;;;;;10.25;7.75;;;17.60;99.90;;;;;;5026014;28;20049;-69
2023/09/28 00:53:06;;;;;;;8.73;6.93;;;17.60;99.90;;;;;;5042727;28;20041;-68
2023/09/28 00:55:33;;;;;;;8.95;7.45;;;17.60;99.90;;;;;;5047958;28;20097;-68
2023/09/28 00:58:05;;;;;;;10.40;6.93;;;17.70;99.90;;;;;;5043787;28;20099;-68
2023/09/28 01:00:34;;;;;;;9.02;6.63;;;17.80;99.90;;;;;;5043345;28;20052;-69
2023/09/28 01:03:02;;;;;;;9.10;6.45;;;17.70;99.90;;;;;;5045621;28;20120;-68
2023/09/28 01:05:33;;;;;;;9.32;6.72;;;17.70;99.90;;;;;;5040066;28;20920;-69
2023/09/28 01:08:18;;;;;;;10.98;7.07;;;17.80;99.90;;;;;;5041713;28;20090;-68
2023/09/28 01:10:45;;;;;;;8.38;6.32;;;17.80;99.90;;;;;;5039289;28;20418;-67
2023/09/28 01:13:12;;;;;;;8.68;6.93;;;17.80;99.90;;;;;;5040884;28;20122;-69
2023/09/28 01:15:41;;;;;;;8.80;6.60;;;17.70;99.90;;;;;;5043693;28;20040;-68
2023/09/28 01:18:11;;;;;;;8.23;6.95;;;17.80;99.90;;;;;;5042696;28;20112;-68
2023/09/28 01:20:38;;;;;;;;;;;17.70;99.90;;;;;;5036079;28;20044;-68
2023/09/28 01:23:04;;;;;;;9.93;6.60;;;17.80;99.90;;;;;;5025996;28;19917;-69
2023/09/28 01:25:31;;;;;;;9.30;6.72;;;17.80;99.90;;;;;;5041991;28;20094;-69
2023/09/28 01:27:57;;;;;;;9.57;7.40;;;17.70;99.90;;;;;;5047411;28;20132;-68
2023/09/28 01:30:23;;;;;;;9.63;7.40;;;17.80;99.90;;;;;;5027438;28;20119;-68
2023/09/28 01:32:49;;;;;;;9.60;6.80;;;17.70;99.90;;;;;;5043471;28;20045;-68
2023/09/28 01:35:15;;;;;;;9.07;6.97;;;17.80;99.90;;;;;;5039641;28;20045;-67
2023/09/28 01:38:05;;;;;;;10.85;7.07;;;17.80;99.90;;;;;;5030437;28;20124;-68
2023/09/28 01:40:30;;;;;;;8.02;6.45;;;17.80;99.90;;;;;;5053739;28;20076;-68
2023/09/28 01:42:56;;;;;;;9.50;6.68;;;17.80;99.90;;;;;;5053305;28;20113;-68
2023/09/28 01:45:22;;;;;;;12.68;6.70;;;17.80;99.90;;;;;;5031443;28;20047;-70
2023/09/28 01:47:48;;;;;;;8.07;6.13;;;17.80;99.90;;;;;;5022486;28;20622;-68
2023/09/28 01:50:14;;;;;;;11.02;7.38;;;17.80;99.90;;;;;;5047199;28;20141;-67
2023/09/28 01:52:39;;;;;;;9.00;6.55;;;17.80;99.90;;;;;;5054869;28;20564;-68
2023/09/28 01:55:05;;;;;;;7.75;6.57;;;17.70;99.90;;;;;;5036197;28;20033;-68
2023/09/28 01:57:31;;;;;;;7.97;6.60;;;17.70;99.90;;;;;;5042077;28;20051;-68
2023/09/28 02:00:00;;;;;;;8.65;5.90;;;17.70;99.90;;;;;;5043257;28;20068;-69
2023/09/28 02:02:29;;;;;;;8.43;6.35;;;17.70;99.90;;;;;;5037882;28;20485;-67
2023/09/28 02:04:54;;;;;;;8.35;6.22;;;17.70;99.90;;;;;;5041891;28;20041;-68
2023/09/28 02:07:20;;;;;;;8.55;5.68;;;17.70;99.90;;;;;;5041535;28;20040;-68
2023/09/28 02:09:46;;;;;;;9.63;6.18;;;17.60;99.90;;;;;;5041068;28;20037;-68
2023/09/28 02:12:12;;;;;;;9.48;6.60;;;17.60;99.90;;;;;;5031537;28;20120;-68
2023/09/28 02:14:38;;;;;;;7.35;5.97;;;17.60;99.90;;;;;;5043203;28;20145;-68
2023/09/28 02:17:04;;;;;;;11.80;6.60;;;17.50;99.90;;;;;;5043686;28;20092;-67
2023/09/28 02:19:29;;;;;;;7.82;5.50;;;17.50;99.90;;;;;;5038890;28;20049;-68
2023/09/28 02:21:55;;;;;;;8.63;5.35;;;17.40;99.90;;;;;;5040657;28;20377;-67
2023/09/28 02:24:21;;;;;;;9.90;5.93;;;17.40;99.90;;;;;;5041406;28;20586;-68
2023/09/28 02:26:47;;;;;;;9.27;6.38;;;17.40;99.90;;;;;;5042757;28;20386;-68
2023/09/28 02:29:12;;;;;;;10.63;6.82;;;17.30;99.90;;;;;;5038420;28;20044;-69
2023/09/28 02:31:42;;;;;;;10.18;6.32;;;17.30;99.90;;;;;;5030180;28;20037;-68
2023/09/28 02:34:08;;;;;;;10.30;7.18;;;17.30;99.90;;;;;;5039592;28;20045;-68
2023/09/28 02:36:34;;;;;;;8.88;6.75;;;17.20;99.90;;;;;;5041323;28;20056;-68
2023/09/28 02:39:00;;;;;;;8.50;6.03;;;17.20;99.90;;;;;;5045627;28;20657;-68
2023/09/28 02:41:26;;;;;;;9.05;6.90;;;17.20;99.90;;;;;;5045979;28;20048;-68
2023/09/28 02:43:51;;;;;;;10.48;6.68;;;17.20;99.90;;;;;;5037837;28;20045;-67
2023/09/28 02:46:17;;;;;;;9.75;6.28;;;17.10;99.90;;;;;;5034754;28;20111;-68
2023/09/28 02:48:43;;;;;;;8.98;6.80;;;17.10;99.90;;;;;;5043061;28;20033;-70
2023/09/28 02:51:10;;;;;;;11.27;6.93;;;17.10;99.90;;;;;;5043183;28;20041;-67
2023/09/28 02:53:36;;;;;;;9.00;6.40;;;17.00;99.90;;;;;;5047934;28;20052;-67
2023/09/28 02:56:03;;;;;;;11.15;6.65;;;17.10;99.90;;;;;;5024264;28;20037;-67
2023/09/28 02:58:29;;;;;;;9.23;6.35;;;17.10;99.90;;;;;;5041177;28;20044;-67
2023/09/28 03:00:56;;;;;;;8.82;6.75;;;17.00;99.90;;;;;;5042598;28;20587;-67
2023/09/28 03:03:23;;;;;;;8.18;6.40;;;17.00;99.90;;;;;;5043531;28;20241;-67
2023/09/28 03:05:54;;;;;;;11.15;6.97;;;17.00;99.90;;;;;;5048353;28;20147;-68
2023/09/28 03:08:20;;;;;;;9.85;6.28;;;16.90;99.90;;;;;;5047253;28;20041;-68
2023/09/28 03:10:46;;;;;;;9.00;6.00;;;16.90;99.90;;;;;;5050195;28;20104;-67
2023/09/28 03:13:12;;;;;;;10.48;6.75;;;16.90;99.90;;;;;;5028382;28;20060;-68
2023/09/28 03:15:42;;;;;;;8.50;6.50;;;16.80;99.90;;;;;;5038523;28;20033;-67
2023/09/28 03:18:07;;;;;;;13.15;7.13;;;16.70;99.90;;;;;;5041201;28;20050;-67
2023/09/28 03:20:33;;;;;;;10.80;7.03;;;16.80;99.90;;;;;;5043175;28;20182;-67
2023/09/28 03:22:59;;;;;;;9.82;7.30;;;16.70;99.90;;;;;;5046506;28;20601;-68
2023/09/28 03:25:25;;;;;;;10.70;7.63;;;16.60;99.90;;;;;;5042445;28;20028;-67
2023/09/28 03:27:52;;;;;;;10.80;7.10;;;16.60;99.90;;;;;;5051500;28;20087;-67
2023/09/28 03:30:23;;;;;;;11.35;6.68;;;16.60;99.90;;;;;;5051321;28;20041;-67
2023/09/28 03:32:49;;;;;;;9.27;6.32;;;16.50;99.90;;;;;;5039756;28;20037;-67
2023/09/28 03:35:16;;;;;;;8.25;6.82;;;16.50;99.90;;;;;;5041877;28;20049;-66
2023/09/28 03:37:43;;;;;;;8.98;6.63;;;16.40;99.90;;;;;;5037386;28;20038;-67
2023/09/28 03:40:10;;;;;;;9.63;6.90;;;16.40;99.90;;;;;;5044248;28;20044;-67
2023/09/28 03:42:55;;;;;;;10.43;7.15;;;16.40;99.90;;;;;;5043999;28;20037;-67
2023/09/28 03:45:22;;;;;;;10.57;6.97;;;16.40;99.90;;;;;;5040658;28;20055;-67
2023/09/28 03:47:52;;;;;;;10.32;7.22;;;16.30;99.90;;;;;;5036823;28;20477;-68
2023/09/28 03:50:20;;;;;;;9.52;6.63;;;16.30;99.90;;;;;;5042348;28;20051;-67
2023/09/28 03:52:45;;;;;;;11.45;7.60;;;16.20;99.90;;;;;;5049729;28;20481;-67
2023/09/28 03:55:12;;;;;;;9.35;6.72;;;16.20;99.90;;;;;;5031442;28;20095;-67
2023/09/28 03:57:39;;;;;;;10.50;6.32;;;16.20;99.90;;;;;;5046098;28;20040;-67
2023/09/28 04:00:12;;;;;;;12.80;7.65;;;16.10;99.90;;;;;;5049369;28;20120;-67
2023/09/28 04:02:43;;;;;;;10.02;6.70;;;16.00;99.90;;;;;;5036159;28;20853;-67
2023/09/28 04:05:09;;;;;;;12.15;7.03;;;16.10;99.90;;;;;;5035730;28;20045;-67
2023/09/28 04:07:35;;;;;;;10.15;6.93;;;16.00;99.90;;;;;;5036533;28;20051;-68
2023/09/28 04:10:01;;;;;;;10.57;7.55;;;16.00;99.90;;;;;;5037502;28;20083;-67
2023/09/28 04:12:28;;;;;;;10.18;6.82;;;15.90;99.90;;;;;;5027735;28;20791;-67
2023/09/28 04:14:53;;;;;;;9.93;6.45;;;15.80;99.90;;;;;;5035446;28;20128;-67
2023/09/28 04:17:19;;;;;;;9.20;7.25;;;15.80;99.90;;;;;;5044062;28;20434;-67
2023/09/28 04:19:45;;;;;;;8.95;6.78;;;15.70;99.90;;;;;;5032614;28;20087;-67
2023/09/28 04:22:11;;;;;;;9.18;6.53;;;15.70;99.90;;;;;;5044477;28;20370;-67
2023/09/28 04:24:36;;;;;;;9.50;6.93;;;15.70;99.90;;;;;;5047905;28;20037;-67
2023/09/28 04:27:02;;;;;;;10.30;6.82;;;15.70;99.90;;;;;;5043500;28;20550;-67
2023/09/28 04:29:28;;;;;;;11.35;7.25;;;15.80;99.90;;;;;;5020848;28;20037;-66
2023/09/28 04:31:56;;;;;;;8.88;6.50;;;15.80;99.90;;;;;;5030827;28;20127;-67
2023/09/28 04:34:22;;;;;;;9.63;6.75;;;15.80;99.90;;;;;;5044073;28;20471;-67
2023/09/28 04:36:49;;;;;;;8.95;6.68;;;15.70;99.90;;;;;;5037736;28;20127;-67
2023/09/28 04:39:17;;;;;;;9.30;6.60;;;15.80;99.90;;;;;;5031403;28;20114;-67
2023/09/28 04:41:43;;;;;;;9.13;6.78;;;15.70;99.90;;;;;;5038041;28;20036;-66
2023/09/28 04:44:09;;;;;;;9.98;6.60;;;15.70;99.90;;;;;;5048474;28;20497;-68
2023/09/28 04:46:35;;;;;;;10.27;6.50;;;15.70;99.90;;;;;;5045067;28;20074;-66
2023/09/28 04:49:01;;;;;;;10.10;6.78;;;15.70;99.90;;;;;;5044305;28;20032;-67
2023/09/28 04:51:28;;;;;;;9.98;6.47;;;15.60;99.90;;;;;;5038415;28;20045;-67
2023/09/28 04:53:54;;;;;;;10.48;7.43;;;15.60;99.90;;;;;;5045624;28;20037;-67
2023/09/28 04:56:21;;;;;;;11.43;7.03;;;15.70;99.90;;;;;;5027015;28;20052;-67
2023/09/28 04:58:46;;;;;;;9.95;6.85;;;15.70;99.90;;;;;;5036979;28;20581;-67
2023/09/28 05:01:12;;;;;;;10.48;7.15;;;15.70;99.90;;;;;;5043639;28;20118;-66
2023/09/28 05:03:38;;;;;;;12.68;7.22;;;15.70;99.90;;;;;;5044744;28;20519;-67
2023/09/28 05:06:05;;;;;;;9.45;6.65;;;15.60;99.90;;;;;;5041380;28;20045;-67
2023/09/28 05:08:30;;;;;;;10.88;6.82;;;15.60;99.90;;;;;;5045250;28;20094;-66
2023/09/28 05:10:56;;;;;;;13.35;7.18;;;15.60;99.90;;;;;;5040046;28;20032;-67
2023/09/28 05:13:23;;;;;;;11.70;7.07;;;15.60;99.90;;;;;;5034096;28;20182;-67
2023/09/28 05:15:48;;;;;;;10.35;7.25;;;15.60;99.90;;;;;;5019349;28;20124;-67
2023/09/28 05:18:14;;;;;;;8.77;6.85;;;15.60;99.90;;;;;;5043837;28;20191;-67
2023/09/28 05:20:40;;;;;;;11.27;7.20;;;15.60;99.90;;;;;;5029339;28;20133;-67
2023/09/28 05:23:06;;;;;;;12.63;7.05;;;15.50;99.90;;;;;;5030008;28;20708;-68
2023/09/28 05:25:34;;;;;;;9.20;6.75;;;15.50;99.90;;;;;;5038472;28;20049;-67
2023/09/28 05:28:00;;;;;;;11.65;7.47;;;15.50;99.90;;;;;;5039390;28;20044;-67
2023/09/28 05:30:26;;;;;;;10.70;7.95;;;15.50;99.90;;;;;;5041396;28;20037;-67
2023/09/28 05:32:51;;;;;;;13.15;7.68;;;15.50;99.90;;;;;;5024118;28;20192;-67
2023/09/28 05:35:17;;;;;;;10.95;7.18;;;15.40;99.90;;;;;;5025997;28;20106;-68
2023/09/28 05:37:43;;;;;;;11.40;7.22;;;15.40;99.90;;;;;;5043519;28;20045;-67
2023/09/28 05:40:09;;;;;;;14.68;7.68;;;15.40;99.90;;;;;;5026434;28;20072;-69
2023/09/28 05:42:35;;;;;;;13.57;8.30;;;15.30;99.90;;;;;;5043298;28;20049;-67
2023/09/28 05:45:02;;;;;;;15.95;7.55;;;15.30;99.90;;;;;;5036581;28;20051;-66
2023/09/28 05:47:28;;;;;;;11.98;7.13;;;15.30;99.90;;;;;;5028756;28;20041;-67
2023/09/28 05:49:54;;;;;;;11.07;7.82;;;15.30;99.90;;;;;;5039739;28;20800;-67
2023/09/28 05:52:20;;;;;;;12.93;7.60;;;15.30;99.90;;;;;;5045500;28;20521;-67
2023/09/28 05:54:46;;;;;;;11.65;7.40;;;15.30;99.90;;;;;;5026467;28;20079;-67
2023/09/28 05:57:13;;;;;;;13.73;7.60;;;15.30;99.90;;;;;;5030731;28;20071;-67
2023/09/28 05:59:38;;;;;;;10.77;7.80;;;15.40;99.90;;;;;;5040714;28;20055;-67
2023/09/28 06:02:04;;;;;;;13.45;7.32;;;15.40;99.90;;;;;;5026398;28;20041;-67
2023/09/28 06:04:30;;;;;;;11.70;7.20;;;15.40;99.90;;;;;;5031589;28;20037;-67
2023/09/28 06:06:56;;;;;;;12.55;7.53;;;15.40;99.90;;;;;;5042241;28;20107;-66
2023/09/28 06:09:22;;;;;;;11.15;7.22;;;15.40;99.90;;;;;;5044852;28;20315;-67
2023/09/28 06:11:48;;;;;;;13.93;7.40;;;15.40;99.90;;;;;;5038929;28;20041;-66
2023/09/28 06:14:15;;;;;;;11.27;7.05;;;15.50;99.90;;;;;;5041867;28;20040;-66
2023/09/28 06:16:42;;;;;;;11.88;7.32;;;15.50;99.90;;;;;;5041376;28;20135;-67
2023/09/28 06:19:08;;;;;;;11.27;7.05;;;15.60;99.90;;;;;;5045695;28;20094;-67
2023/09/28 06:21:34;;;;;;;9.77;7.25;;;15.60;99.90;;;;;;5022198;28;20051;-67
2023/09/28 06:24:00;;;;;;;9.43;6.47;;;15.70;99.90;;;;;;5045692;28;20143;-67
2023/09/28 06:26:26;;;;;;;11.32;6.95;;;15.80;99.90;;;;;;5049176;28;20144;-67
2023/09/28 06:28:51;;;;;;;12.40;6.43;;;15.80;99.90;;;;;;5047631;28;20037;-68
2023/09/28 06:31:19;;;;;;;11.25;5.80;;;15.90;99.90;;;;;;5045698;28;20064;-67
2023/09/28 06:33:47;;;;;;;15.35;6.10;;;15.90;99.90;;;;;;5049506;28;20045;-67
2023/09/28 06:36:14;;;;;;;6.93;5.40;;;15.90;99.90;;;;;;5035396;28;20044;-67
2023/09/28 06:38:40;;;;;;;11.27;5.10;;;15.90;99.90;;;;;;5047671;28;20400;-68
2023/09/28 06:41:06;;;;;;;9.13;4.80;;;16.00;99.90;;;;;;5045460;28;20116;-68
2023/09/28 06:43:31;;;;;;;12.23;5.18;;;16.10;99.90;;;;;;5048399;28;20044;-67
2023/09/28 06:45:58;;;;;;;11.88;4.88;;;16.20;99.90;;;;;;5046240;28;20048;-68
2023/09/28 06:48:24;;;;;;;8.88;4.47;;;16.30;99.90;;;;;;5045208;28;20037;-68
2023/09/28 06:50:50;;;;;;;8.48;4.43;;;16.40;99.90;;;;;;5047441;28;20045;-67
2023/09/28 06:53:16;;;;;;;11.80;4.68;;;16.50;99.90;;;;;;5047897;28;20063;-67
2023/09/28 06:55:44;;;;;;;13.05;4.18;;;16.70;99.90;;;;;;5051134;28;20445;-68
2023/09/28 06:58:14;;;;;;;9.70;4.00;;;16.80;99.90;;;;;;5046324;28;20033;-68
2023/09/28 07:00:46;;;;;;;11.98;4.18;;;16.90;99.90;;;;;;5046075;28;20041;-67
2023/09/28 07:03:13;;;;;;;13.73;3.47;;;17.00;99.90;;;;;;5041068;28;20572;-68
2023/09/28 07:05:38;;;;;;;15.18;3.90;;;17.20;99.90;;;;;;5039510;28;20084;-69
2023/09/28 07:08:05;;;;;;;13.10;3.67;;;17.40;99.90;;;;;;5042672;28;20069;-68
2023/09/28 07:10:35;;;;;;;17.33;3.88;;;17.50;99.90;;;;;;5047682;28;20037;-68
2023/09/28 07:13:05;;;;;;;15.15;3.60;;;17.50;99.90;;;;;;5039999;28;20036;-67
2023/09/28 07:15:36;;;;;;;12.52;3.83;;;17.60;99.90;;;;;;5047173;28;20037;-68
2023/09/28 07:18:03;;;;;;;11.05;3.63;;;17.70;99.90;;;;;;5047224;28;20044;-68
2023/09/28 07:20:29;;;;;;;14.05;3.30;;;17.80;99.90;;;;;;5045694;28;20049;-68
2023/09/28 07:22:54;;;;;;;14.48;3.22;;;17.80;99.90;;;;;;5043355;28;20046;-68
2023/09/28 07:25:20;;;;;;;13.98;3.28;;;17.90;99.90;;;;;;5048846;28;20087;-67
2023/09/28 07:27:50;;;;;;;15.07;3.83;;;17.90;99.90;;;;;;5043295;28;20337;-68
2023/09/28 07:30:20;;;;;;;15.90;3.58;;;18.00;99.90;;;;;;5039325;28;20498;-68
2023/09/28 07:32:47;;;;;;;16.17;3.03;;;18.00;99.90;;;;;;5031481;28;20461;-68
2023/09/28 07:35:13;;;;;;;15.52;3.42;;;18.00;99.90;;;;;;5048774;28;20044;-68
2023/09/28 07:37:40;;;;;;;17.92;3.45;;;18.10;99.90;;;;;;5045546;28;20044;-68
2023/09/28 07:40:07;;;;;;;16.17;3.47;;;18.20;99.90;;;;;;5032036;28;20408;-68
2023/09/28 07:42:32;;;;;;;15.15;3.42;;;18.20;99.90;;;;;;5046941;28;20052;-68
2023/09/28 07:44:58;;;;;;;11.52;2.83;;;18.20;99.90;;;;;;5038689;28;20049;-68
2023/09/28 07:47:24;;;;;;;16.65;3.35;;;18.30;99.90;;;;;;5047459;28;20441;-68
2023/09/28 07:49:52;;;;;;;13.65;3.03;;;18.30;99.90;;;;;;5044153;28;20064;-69
2023/09/28 07:52:17;;;;;;;12.02;2.97;;;18.40;99.90;;;;;;5035473;28;20041;-68
2023/09/28 07:54:43;;;;;;;14.40;3.45;;;18.50;99.90;;;;;;5042620;28;20063;-68
2023/09/28 07:57:09;;;;;;;14.13;3.17;;;18.50;99.90;;;;;;5041749;28;20047;-67
2023/09/28 07:59:35;;;;;;;16.83;3.00;;;18.60;99.90;;;;;;5046654;28;20457;-68
2023/09/28 08:02:01;;;;;;;14.07;3.08;;;18.70;99.90;;;;;;5046155;28;20048;-68
2023/09/28 08:04:27;;;;;;;17.67;3.10;;;18.80;99.90;;;;;;5047079;28;20099;-70
2023/09/28 08:06:54;;;;;;;12.57;2.53;;;18.70;99.90;;;;;;5045407;28;20041;-68
2023/09/28 08:09:19;;;;;;;17.60;3.20;;;18.80;99.90;;;;;;5045917;28;20045;-68
2023/09/28 08:11:49;;;;;;;19.85;3.65;;;19.00;99.90;;;;;;5047395;28;20033;-68
2023/09/28 08:14:16;;;;;;;18.25;3.72;;;19.00;99.90;;;;;;5045938;28;20437;-68
2023/09/28 08:16:45;;;;;;;17.05;3.33;;;19.10;99.90;;;;;;5043509;28;20049;-69
2023/09/28 08:19:11;;;;;;;13.77;3.10;;;19.10;99.90;;;;;;5044744;28;20423;-69
2023/09/28 08:21:38;;;;;;;16.30;3.53;;;19.10;99.90;;;;;;5045266;28;20072;-68
2023/09/28 08:24:05;;;;;;;14.85;2.85;;;19.30;99.90;;;;;;5040264;28;20036;-68
2023/09/28 08:26:30;;;;;;;16.08;3.03;;;19.40;99.90;;;;;;5049587;28;20045;-68
2023/09/28 08:28:58;;;;;;;17.83;3.08;;;19.40;99.90;;;;;;5051048;28;20536;-68
2023/09/28 08:31:24;;;;;;;14.15;3.47;;;19.40;99.90;;;;;;5046651;28;20037;-68
2023/09/28 08:33:49;;;;;;;15.65;2.83;;;19.50;99.90;;;;;;5043026;28;20038;-68
2023/09/28 08:36:15;;;;;;;16.23;3.50;;;19.60;99.90;;;;;;5038581;28;20055;-68
2023/09/28 08:38:41;;;;;;;13.95;3.08;;;19.60;99.90;;;;;;5040178;28;20037;-69
2023/09/28 08:41:09;;;;;;;20.45;3.30;;;19.60;99.90;;;;;;5025979;28;20064;-68
2023/09/28 08:43:42;;;;;;;18.10;3.20;;;19.70;99.90;;;;;;5043633;28;20466;-69
2023/09/28 08:46:11;;;;;;;20.40;3.33;;;19.80;99.90;;;;;;5028417;28;20068;-69
2023/09/28 08:48:40;;;;;;;22.20;4.32;;;19.80;99.90;;;;;;5048902;28;20476;-68
2023/09/28 08:51:09;;;;;;;13.68;3.33;;;19.90;99.90;;;;;;5044957;28;20040;-69
2023/09/28 08:53:38;;;;;;;15.52;3.78;;;19.90;99.90;;;;;;5040975;28;20525;-68
2023/09/28 08:56:04;;;;;;;16.35;2.85;;;19.90;99.90;;;;;;5047405;28;20036;-69
2023/09/28 08:58:36;;;;;;;21.83;3.70;;;20.00;99.90;;;;;;5029226;28;20080;-68
2023/09/28 09:01:03;;;;;;;13.05;3.13;;;20.20;99.90;;;;;;5041951;28;20033;-69
2023/09/28 09:03:31;;;;;;;13.05;3.00;;;20.20;99.90;;;;;;5036499;28;20072;-68
2023/09/28 09:05:57;;;;;;;18.75;3.05;;;20.20;99.90;;;;;;5044347;28;20095;-69
2023/09/28 09:08:24;;;;;;;20.23;3.17;;;20.10;99.90;;;;;;5045018;28;20116;-70
2023/09/28 09:10:51;;;;;;;20.17;3.00;;;20.10;99.90;;;;;;5047722;28;20335;-70
2023/09/28 09:13:18;;;;;;;22.33;3.20;;;20.00;99.90;;;;;;5032903;28;20045;-69
2023/09/28 09:15:44;;;;;;;15.50;3.38;;;20.20;99.90;;;;;;5028824;28;20412;-69
2023/09/28 09:18:16;;;;;;;17.60;3.70;;;20.20;99.90;;;;;;5047677;28;20052;-69
2023/09/28 09:20:42;;;;;;;15.35;3.03;;;20.20;98.50;;;;;;5029541;28;20033;-69
2023/09/28 09:23:12;;;;;;;11.10;2.88;;;20.20;99.90;;;;;;5045339;28;20490;-69
2023/09/28 09:25:45;;;;;;;19.80;3.00;;;20.10;99.20;;;;;;5040937;28;20067;-68
2023/09/28 09:28:34;;;;;;;22.33;3.80;;;20.20;98.60;;;;;;5044390;28;20041;-69
2023/09/28 09:31:03;;;;;;;21.00;3.45;;;20.10;96.60;;;;;;5045004;28;20044;-70
2023/09/28 09:33:29;;;;;;;16.67;2.90;;;20.10;97.40;;;;;;5047324;28;20040;-68
2023/09/28 09:35:54;;;;;;;14.38;2.95;;;20.10;98.40;;;;;;5048019;28;20430;-68
2023/09/28 09:38:23;;;;;;;15.18;2.80;;;20.10;98.60;;;;;;5045551;28;20037;-68
2023/09/28 09:41:02;;;;;;;17.13;3.47;;;20.00;98.10;;;;;;5046837;28;20061;-68
2023/09/28 09:43:34;;;;;;;16.15;3.92;;;20.00;98.00;;;;;;5046492;28;20544;-68
2023/09/28 09:46:09;;;;;;;17.38;4.18;;;20.00;97.70;;;;;;5027362;28;20341;-68
2023/09/28 09:48:40;;;;;;;16.40;3.13;;;20.00;98.20;;;;;;5043343;28;20388;-68
2023/09/28 09:51:12;;;;;;;15.77;3.30;;;20.00;98.80;;;;;;5046341;28;20076;-70
2023/09/28 09:53:40;;;;;;;14.52;3.13;;;19.90;98.50;;;;;;5047324;28;20037;-71
2023/09/28 09:56:07;;;;;;;13.85;3.38;;;20.00;98.70;;;;;;5045240;28;20367;-68
2023/09/28 09:58:40;;;;;;;15.05;2.95;;;20.10;98.50;;;;;;5044643;28;20056;-68
2023/09/28 10:01:10;;;;;;;15.15;2.75;;;20.20;98.20;;;;;;5040780;28;20145;-69
2023/09/28 10:03:38;;;;;;;;;;;20.20;97.70;;;;;;5028715;28;20100;-69
2023/09/28 10:06:05;;;;;;;15.00;3.10;;;20.30;94.40;;;;;;5028895;28;20620;-68
2023/09/28 10:08:32;;;;;;;19.00;3.35;;;20.50;96.90;;;;;;5043058;28;20041;-68
2023/09/28 10:11:00;;;;;;;15.77;3.42;;;20.60;96.20;;;;;;5047525;28;20104;-68
2023/09/28 10:13:27;;;;;;;16.35;2.90;;;20.60;94.90;;;;;;5048663;28;20605;-69
2023/09/28 10:15:54;;;;;;;22.63;4.78;;;20.60;95.20;;;;;;5044489;28;20033;-68
2023/09/28 10:18:20;;;;;;;18.02;3.08;;;20.60;94.70;;;;;;5041341;28;20048;-68
2023/09/28 10:20:46;;;;;;;13.70;2.53;;;20.70;94.50;;;;;;5044739;28;20040;-69
2023/09/28 10:23:16;;;;;;;12.98;2.60;;;20.90;94.20;;;;;;5029690;28;20044;-68
2023/09/28 10:26:11;;;;;;;10.32;2.72;;;21.00;93.90;;;;;;5046680;28;20076;-68
2023/09/28 10:29:07;;;;;;;16.77;2.92;;;20.90;91.50;;;;;;5037857;28;20029;-69
2023/09/28 10:31:37;;;;;;;14.35;3.42;;;20.80;91.60;;;;;;5044892;28;20072;-69
2023/09/28 10:34:04;;;;;;;17.17;2.67;;;20.70;92.80;;;;;;5043019;28;20044;-71
2023/09/28 10:36:34;;;;;;;15.68;2.50;;;20.50;90.60;;;;;;5036000;28;20044;-70
2023/09/28 10:39:14;;;;;;;11.25;2.92;;;20.30;92.00;;;;;;5043546;28;20040;-69
2023/09/28 10:41:49;;;;;;;14.35;3.60;;;20.20;91.20;;;;;;5041729;28;20462;-68
2023/09/28 10:44:20;;;;;;;9.00;2.35;;;20.30;91.30;;;;;;5040637;28;20602;-68
2023/09/28 10:46:47;;;;;;;17.30;3.55;;;20.30;91.50;;;;;;5055773;28;20033;-69
2023/09/28 10:49:15;;;;;;;14.35;3.08;;;20.40;91.10;;;;;;5042428;28;20029;-68
2023/09/28 10:51:41;;;;;;;11.48;2.60;;;20.40;91.70;;;;;;5020284;28;20048;-68
2023/09/28 10:54:08;;;;;;;14.75;2.50;;;20.60;91.90;;;;;;5040365;28;20049;-69
2023/09/28 10:56:34;;;;;;;16.02;2.70;;;20.60;91.40;;;;;;5047394;28;20055;-69
2023/09/28 10:59:02;;;;;;;12.68;2.38;;;20.70;91.10;;;;;;5043221;28;20431;-69
2023/09/28 11:01:28;;;;;;;15.15;2.90;;;20.70;90.70;;;;;;5034042;28;20057;-70
2023/09/28 11:03:54;;;;;;;13.05;3.00;;;20.70;90.00;;;;;;5038115;28;20478;-68
2023/09/28 11:06:20;;;;;;;15.45;2.67;;;20.80;89.30;;;;;;5049447;28;20119;-68
2023/09/28 11:08:45;;;;;;;16.50;3.38;;;20.90;88.10;;;;;;5043347;28;20049;-67
2023/09/28 11:11:11;;;;;;;12.65;2.13;;;21.00;87.70;;;;;;5039244;28;20037;-69
2023/09/28 11:13:38;;;;;;;11.02;2.75;;;21.00;87.00;;;;;;5046889;28;20049;-69
2023/09/28 11:16:04;;;;;;;11.88;2.38;;;21.10;86.00;;;;;;5048901;28;20116;-69
2023/09/28 11:18:30;;;;;;;10.98;2.58;;;21.20;85.90;;;;;;5030051;28;20131;-70
2023/09/28 11:20:56;;;;;;;14.77;3.10;;;21.40;83.50;;;;;;5035221;28;20029;-69
2023/09/28 11:23:22;;;;;;;13.02;2.30;;;21.30;83.80;;;;;;5048353;28;20059;-68
2023/09/28 11:25:49;;;;;;;12.38;2.10;;;21.50;84.30;;;;;;5049266;28;20044;-68
2023/09/28 11:28:15;;;;;;;11.82;2.53;;;21.50;83.60;;;;;;5046956;28;20029;-69
2023/09/28 11:30:40;;;;;;;11.45;2.50;;;21.40;82.40;;;;;;5044316;28;20048;-67
2023/09/28 11:33:07;;;;;;;15.25;2.50;;;21.50;82.80;;;;;;5014911;28;20049;-67
2023/09/28 11:35:34;;;;;;;13.07;2.10;;;21.50;82.90;;;;;;5043954;28;20033;-68
2023/09/28 11:38:06;;;;;;;18.65;3.15;;;21.60;82.10;;;;;;5045540;28;20358;-69
2023/09/28 11:40:33;;;;;;;13.73;2.45;;;21.50;79.90;;;;;;5048016;28;20072;-68
2023/09/28 11:42:59;;;;;;;15.05;2.40;;;21.50;80.90;;;;;;5037362;28;20347;-68
2023/09/28 11:45:30;;;;;;;11.55;2.42;;;21.60;81.60;;;;;;5043685;28;20041;-68
2023/09/28 11:47:55;;;;;;;15.73;2.33;;;21.60;80.70;;;;;;5024550;28;20440;-67
2023/09/28 11:50:23;;;;;;;14.38;2.45;;;21.50;81.50;;;;;;5027573;28;20045;-68
2023/09/28 11:52:51;;;;;;;13.40;2.15;;;21.50;81.00;;;;;;5046138;28;20068;-70
2023/09/28 11:55:17;;;;;;;13.73;2.50;;;21.30;78.70;;;;;;5047483;28;20041;-68
2023/09/28 11:57:45;;;;;;;11.18;2.55;;;21.20;80.30;;;;;;5047146;28;20118;-69
2023/09/28 12:00:18;;;;;;;12.43;2.58;;;21.20;79.70;;;;;;5034169;28;20056;-68
2023/09/28 12:02:48;;;;;;;9.98;2.30;;;21.30;80.20;;;;;;5041549;28;20080;-68
2023/09/28 12:05:14;;;;;;;10.27;2.13;;;21.20;79.20;;;;;;5033377;28;20669;-70
2023/09/28 12:07:43;;;;;;;11.65;2.53;;;21.10;76.90;;;;;;5032701;28;20048;-68
2023/09/28 12:10:11;;;;;;;14.35;3.45;;;21.10;79.20;;;;;;5037272;28;20041;-68
2023/09/28 12:12:38;;;;;;;14.38;2.65;;;21.10;78.40;;;;;;5033863;28;20102;-68
2023/09/28 12:15:10;;;;;;;9.98;2.28;;;21.20;78.50;;;;;;5049898;28;20033;-69
2023/09/28 12:17:37;;;;;;;11.07;2.70;;;21.30;78.20;;;;;;5045702;28;20063;-69
2023/09/28 12:20:03;;;;;;;12.95;2.47;;;21.30;78.20;;;;;;5035229;28;20037;-69
2023/09/28 12:22:28;;;;;;;14.10;2.53;;;21.30;78.70;;;;;;5043983;28;20878;-68
2023/09/28 12:24:55;;;;;;;11.13;2.08;;;21.40;79.00;;;;;;5044577;28;20330;-69
2023/09/28 12:27:21;;;;;;;10.85;2.53;;;21.40;78.00;;;;;;5041388;28;20109;-68
2023/09/28 12:29:47;;;;;;;15.25;2.67;;;21.40;78.40;;;;;;5033603;28;20500;-68
2023/09/28 12:32:13;;;;;;;16.50;2.50;;;21.50;78.20;;;;;;5043045;28;20033;-69
2023/09/28 12:34:38;;;;;;;19.73;2.88;;;21.50;78.40;;;;;;5040405;28;20052;-68
2023/09/28 12:37:04;;;;;;;15.23;2.67;;;21.50;78.70;;;;;;5046275;28;20032;-68
2023/09/28 12:39:32;;;;;;;15.30;2.42;;;21.50;79.30;;;;;;5027538;28;20041;-68
2023/09/28 12:41:58;;;;;;;18.40;2.90;;;21.60;79.30;;;;;;5045278;28;20045;-69
2023/09/28 12:44:25;;;;;;;14.68;3.03;;;21.50;79.20;;;;;;5047375;28;20131;-67